Aviation Digital Data Service (ADDS)

Output produced by METARs form (1113 UTC 19 January 2019)
found at http://www.aviationweather.gov/metar/data/
 
OPLA 191055Z 29004KT 4000 HZ SCT100 SCT200 20/03 Q1017 NOSIG RMK QFE991 RMK A30.01
TAF OPLA 190945Z 1912/2018 33004KT 3000 FU SCT100 SCT200 TX20/2010Z TN05/2001Z 
     TEMPO 2000/2005 1000 BR 
     FM200500 03004KT 2500 FU FEW040 SCT100 
     TEMPO 2015/2018 33015G30KT 1000 TSRA FEW030CB SCT040 BKN100
       
TAF OPBW 190950Z 1912/2006 05005KT 2000 FU SCT040 SCT120 TN07/2001Z 
     PROB30 
     TEMPO 1920/1924 36020KT 1500 -TSRA FEW030CB SCT040 BKN100 
     TEMPO 2001/2005 00000KT 0600 FU FEW120
       
OPRN 191100Z 00000KT 5000 HZ NSC 21/09 Q1018 NOSIG RMK A3006
TAF OPRN 190930Z 1912/2018 24012KT 4000 HZ SCT040 BKN080 
     TEMPO 1921/1924 -RA 
     BECMG 2006/2008 24010G20KT 5000 RA FEW030TCU SCT040 OVC080
       
TAF OPDG 190950Z 1912/2006 36005KT 4000 FU SCT040 SCT120 TN05/2001Z 
     PROB30 
     TEMPO 1920/1924 36020KT 2000 -TSRA FEW030CB SCT040 BKN100 
     TEMPO 2001/2005 00000KT 1500 BR FEW120
       
TAF OPGD 190930Z 1912/2012 23010KT 4000 FU SCT030 SCT100 
     TEMPO 2000/2006 04015G25KT 1500 -TSRA FEW025CB SCT030 BKN090 
     FM200800 24008G18KT 5000 HZ FEW030 SCT100
       
OPKC 191055Z 00000KT 3000 HZ NSC 27/11 Q1014 NOSIG
TAF OPKC 190930Z 1912/1921 24008KT 6000 NSC
       
OPMT 191100Z 05004KT 5000 HZ SCT100 20/05 Q1016 NOSIG
TAF OPMT 190950Z 1912/2006 05005KT 4000 FU SCT040 SCT120 TN07/2001Z 
     PROB30 
     TEMPO 1920/1924 36020KT 2000 -TSRA FEW030CB SCT040 BKN100 
     TEMPO 2001/2005 00000KT 1500 BR FEW120
       
OPNH 191100Z 31506KT 2000M FU FEW100 SCT200 22/08 Q1015 BECMG 2500 FU
TAF OPNH 190930Z 1912/1921 31007KT 3000 HZ NSC
       
OPPS 191100Z 31010KT 6000 HZ FEW040 BKN180 19/06 Q1018
TAF OPPS 190915Z 1912/2018 21010KT 4000 HZ FEW040 BKN100 1918/1924 RA SCT040
BKN100 
     BECMG FM 2006 21010G20KT 3000 RA FEW030TCU SCT040 BKN100 
     TEMPO 2014/2018 3000 TSRA FEW030TCU/CB SCT100
       
TAF OPRK 190950Z 1912/2006 05005KT 3000 FU SCT040 SCT120 TN07/2001Z 
     PROB30 
     TEMPO 2001/2005 00000KT 1000 BR FEW120
       
OPSK 191100Z 05010KT 4000 HZ SCT100 21/10 Q1014 NOSIG
TAF OPSK 190930Z 1912/2012 04007KT 3000 FU NSC 
     FM192100 VRB03KT 1500 BR FEW030 SCT100 
     TEMPO 2000/2004 00000KT 0800 FG VV/// 
     FM200600 03010KT 4000 HZ SCT030 SCT100